Menu Close Menu
Station Historical Data
Daily Summary for May 17, 2017 Units:  English    Metric   Both
« Previous Day
Next Day »
Daily Weekly Monthly Yearly Custom
  High: Low: Average:
Temperature: 88.3 °F 65.1 °F 75.9 °F
Dew Point: 66.9 °F 55.9 °F 60.1 °F
Humidity: 82% 36% 60%
Wind Speed: 1.0mph 0.0mph 0.1mph
Wind Gust: 5.0mph - -
Wind- - NW
Pressure: 30.10 in 30.00 in -
Precipitation: 0.00 in    
Historical Graphs
 
 
Tabular Data for May 17, 2017
Time Temperature Dew Point Pressure Wind Wind Speed Wind Gust Humidity Rainfall Rate (Hourly) solar Conditions
00:00 70.9 °F 60.6 °F 30.04 in Calm     70% 0.00 in WeatherDisplay:10.37 W/m2 SCT
00:15 70.5 °F 61.1 °F 30.03 in Calm     72% 0.00 in WeatherDisplay:10.37 W/m2 SCT
00:30 70.1 °F 61.0 °F 30.03 in Calm     73% 0.00 in WeatherDisplay:10.37 W/m2 SCT
00:45 69.7 °F 60.7 °F 30.03 in Calm     73% 0.00 in WeatherDisplay:10.37 W/m2 SCT
01:00 69.4 °F 60.7 °F 30.03 in Calm     74% 0.00 in WeatherDisplay:10.37 W/m2 SCT
01:15 68.8 °F 60.2 °F 30.03 in Calm     74% 0.00 in WeatherDisplay:10.37 W/m2 SCT
01:30 68.6 °F 60.7 °F 30.03 in Calm     76% 0.00 in WeatherDisplay:10.37 W/m2 SCT
01:45 68.2 °F 60.0 °F 30.03 in Calm     75% 0.00 in WeatherDisplay:10.37 W/m2 SCT
02:00 67.9 °F 60.1 °F 30.02 in Calm     76% 0.00 in WeatherDisplay:10.37 W/m2 SCT
02:15 67.3 °F 59.9 °F 30.02 in Calm     77% 0.00 in WeatherDisplay:10.37 W/m2 SCT
02:30 66.9 °F 59.5 °F 30.02 in Calm     77% 0.00 in WeatherDisplay:10.37 W/m2 SCT
02:45 66.8 °F 59.7 °F 30.01 in Calm     78% 0.00 in WeatherDisplay:10.37 W/m2 SCT
03:00 66.6 °F 59.5 °F 30.01 in Calm     78% 0.00 in WeatherDisplay:10.37 W/m2 SCT
03:15 65.8 °F 59.5 °F 30.01 in Calm   1.0 mph 80% 0.00 in WeatherDisplay:10.37 W/m2 SCT
03:30 65.4 °F 58.0 °F 30.01 in Calm     77% 0.00 in WeatherDisplay:10.37 W/m2 SCT
03:45 65.4 °F 58.0 °F 30.01 in Calm     77% 0.00 in WeatherDisplay:10.37 W/m2 SCT
04:00 65.4 °F 58.0 °F 30.01 in Calm     77% 0.00 in WeatherDisplay:10.37 W/m2 SCT
04:15 65.4 °F 58.0 °F 30.02 in Calm     77% 0.00 in WeatherDisplay:10.37 W/m2 SCT
04:30 65.4 °F 58.0 °F 30.02 in Calm     77% 0.00 in WeatherDisplay:10.37 W/m2 SCT
04:45 65.4 °F 58.0 °F 30.03 in Calm     77% 0.00 in WeatherDisplay:10.37 W/m2 SCT
05:00 65.4 °F 58.0 °F 30.03 in Calm     77% 0.00 in WeatherDisplay:10.37 W/m2 SCT
05:15 65.4 °F 58.0 °F 30.03 in Calm     77% 0.00 in WeatherDisplay:10.37 W/m2 SCT
05:30 65.4 °F 58.0 °F 30.03 in Calm     77% 0.00 in WeatherDisplay:10.37 W/m2 SCT
05:45 65.4 °F 58.0 °F 30.03 in Calm     77% 0.00 in WeatherDisplay:10.37 W/m2 SCT
06:00 65.4 °F 58.0 °F 30.04 in Calm     77% 0.00 in WeatherDisplay:10.37 W/m2 SCT
06:15 65.4 °F 58.0 °F 30.04 in Calm     77% 0.00 in WeatherDisplay:10.37 W/m2 SCT
06:30 65.4 °F 58.0 °F 30.04 in Calm     77% 0.00 in WeatherDisplay:10.37 W/m2 SCT
06:45 65.4 °F 58.0 °F 30.05 in Calm     77% 0.00 in WeatherDisplay:10.37 W/m2 SCT
07:00 65.4 °F 58.0 °F 30.06 in Calm     77% 0.00 in WeatherDisplay:10.37 W/m2 SCT
07:15 65.4 °F 58.0 °F 30.06 in Calm     77% 0.00 in WeatherDisplay:10.37 W/m2 SCT
07:30 65.4 °F 58.0 °F 30.06 in Calm     77% 0.00 in WeatherDisplay:10.37 W/m2 SCT
07:45 65.4 °F 58.0 °F 30.07 in Calm     77% 0.00 in WeatherDisplay:10.37 W/m2 SCT
08:00 65.1 °F 59.4 °F 30.07 in Calm     82% 0.00 in WeatherDisplay:10.37 W/m2 SCT
08:15 66.2 °F 60.2 °F 30.08 in Calm   1.0 mph 81% 0.00 in WeatherDisplay:10.37 W/m2 SCT
08:30 67.9 °F 60.8 °F 30.09 in Calm   1.0 mph 78% 0.00 in WeatherDisplay:10.37 W/m2 SCT
08:45 69.4 °F 61.9 °F 30.09 in Calm     77% 0.00 in WeatherDisplay:10.37 W/m2 SCT
09:00 70.6 °F 62.3 °F 30.10 in Calm     75% 0.00 in WeatherDisplay:10.37 W/m2 SCT
09:15 72.0 °F 63.2 °F 30.10 in Calm     74% 0.00 in WeatherDisplay:10.37 W/m2 SCT
09:30 73.1 °F 63.5 °F 30.10 in Calm   2.0 mph 72% 0.00 in WeatherDisplay:10.37 W/m2 SCT
09:45 74.4 °F 63.6 °F 30.09 in Calm   2.0 mph 69% 0.00 in WeatherDisplay:10.37 W/m2 SCT
10:00 75.5 °F 63.8 °F 30.10 in Calm   2.0 mph 67% 0.00 in WeatherDisplay:10.37 W/m2 SCT
10:15 77.3 °F 64.6 °F 30.09 in Calm   1.0 mph 65% 0.00 in WeatherDisplay:10.37 W/m2 SCT
10:30 78.1 °F 65.4 °F 30.10 in Calm   2.0 mph 65% 0.00 in WeatherDisplay:10.37 W/m2 SCT
10:45 79.1 °F 65.9 °F 30.10 in Calm   5.0 mph 64% 0.00 in WeatherDisplay:10.37 W/m2 SCT
11:00 80.2 °F 66.9 °F 30.10 in Calm     64% 0.00 in WeatherDisplay:10.37 W/m2 SCT
11:15 80.4 °F 65.7 °F 30.10 in Calm     61% 0.00 in WeatherDisplay:10.37 W/m2 SCT
11:30 81.0 °F 66.3 °F 30.10 in Calm   2.0 mph 61% 0.00 in WeatherDisplay:10.37 W/m2 SCT
11:45 81.7 °F 66.5 °F 30.10 in Calm   2.0 mph 60% 0.00 in WeatherDisplay:10.37 W/m2 SCT
12:00 82.2 °F 65.4 °F 30.10 in Calm   3.0 mph 57% 0.00 in WeatherDisplay:10.37 W/m2 SCT
12:15 83.4 °F 65.5 °F 30.10 in Calm   2.0 mph 55% 0.00 in WeatherDisplay:10.37 W/m2 SCT
12:30 84.0 °F 64.5 °F 30.10 in Calm   2.0 mph 52% 0.00 in WeatherDisplay:10.37 W/m2 SCT
12:45 85.5 °F 64.8 °F 30.09 in Calm   2.0 mph 50% 0.00 in WeatherDisplay:10.37 W/m2 SCT
13:00 86.8 °F 64.2 °F 30.09 in NW 1.0 mph 2.0 mph 47% 0.00 in WeatherDisplay:10.37 W/m2 SCT
13:15 87.6 °F 64.3 °F 30.08 in Calm   2.0 mph 46% 0.00 in WeatherDisplay:10.37 W/m2 SCT
13:30 88.3 °F 64.3 °F 30.08 in WNW 1.0 mph 3.0 mph 45% 0.00 in WeatherDisplay:10.37 W/m2 SCT
13:45 87.6 °F 61.0 °F 30.07 in NW 1.0 mph 3.0 mph 41% 0.00 in WeatherDisplay:10.37 W/m2 SCT
14:00 86.6 °F 60.8 °F 30.07 in Calm   2.0 mph 42% 0.00 in WeatherDisplay:10.37 W/m2 SCT
14:15 86.5 °F 60.7 °F 30.07 in Calm   3.0 mph 42% 0.00 in WeatherDisplay:10.37 W/m2 SCT
14:30 86.7 °F 62.2 °F 30.06 in Calm   3.0 mph 44% 0.00 in WeatherDisplay:10.37 W/m2 SCT
14:45 85.8 °F 60.1 °F 30.06 in Calm   3.0 mph 42% 0.00 in WeatherDisplay:10.37 W/m2 SCT
15:00 86.2 °F 61.7 °F 30.06 in NNW 1.0 mph 3.0 mph 44% 0.00 in WeatherDisplay:10.37 W/m2 SCT
15:15 86.6 °F 62.1 °F 30.06 in NW 1.0 mph 3.0 mph 44% 0.00 in WeatherDisplay:10.37 W/m2 SCT
15:30 86.3 °F 59.1 °F 30.05 in Calm   1.0 mph 40% 0.00 in WeatherDisplay:10.37 W/m2 SCT
15:45 86.8 °F 58.2 °F 30.05 in Calm   2.0 mph 38% 0.00 in WeatherDisplay:10.37 W/m2 SCT
16:00 86.6 °F 58.0 °F 30.05 in Calm   2.0 mph 38% 0.00 in WeatherDisplay:10.37 W/m2 SCT
16:15 86.5 °F 56.4 °F 30.05 in Calm   2.0 mph 36% 0.00 in WeatherDisplay:10.37 W/m2 SCT
16:30 86.6 °F 58.7 °F 30.04 in Calm   2.0 mph 39% 0.00 in WeatherDisplay:10.37 W/m2 SCT
16:45 86.4 °F 57.8 °F 30.03 in Calm   2.0 mph 38% 0.00 in WeatherDisplay:10.37 W/m2 SCT
17:00 86.8 °F 58.1 °F 30.03 in Calm   3.0 mph 38% 0.00 in WeatherDisplay:10.37 W/m2 SCT
17:15 85.6 °F 59.9 °F 30.03 in Calm   1.0 mph 42% 0.00 in WeatherDisplay:10.37 W/m2 SCT
17:30 85.1 °F 60.1 °F 30.03 in Calm   2.0 mph 43% 0.00 in WeatherDisplay:10.37 W/m2 SCT
17:45 85.3 °F 58.9 °F 30.03 in Calm   1.0 mph 41% 0.00 in WeatherDisplay:10.37 W/m2 SCT
18:00 84.5 °F 59.5 °F 30.02 in Calm   1.0 mph 43% 0.00 in WeatherDisplay:10.37 W/m2 SCT
18:15 85.0 °F 60.0 °F 30.02 in Calm   1.0 mph 43% 0.00 in WeatherDisplay:10.37 W/m2 SCT
18:30 84.0 °F 59.7 °F 30.02 in Calm   1.0 mph 44% 0.00 in WeatherDisplay:10.37 W/m2 SCT
19:00 83.1 °F 58.3 °F 30.01 in Calm     43% 0.00 in WeatherDisplay:10.37 W/m2 SCT
19:15 82.8 °F 58.7 °F 30.01 in Calm     44% 0.00 in WeatherDisplay:10.37 W/m2 SCT
19:30 81.9 °F 59.1 °F 30.01 in Calm     46% 0.00 in WeatherDisplay:10.37 W/m2 SCT
19:45 81.4 °F 58.6 °F 30.00 in Calm     46% 0.00 in WeatherDisplay:10.37 W/m2 SCT
20:00 81.3 °F 58.6 °F 30.00 in Calm     46% 0.00 in WeatherDisplay:10.37 W/m2 SCT
20:15 80.7 °F 58.0 °F 30.00 in Calm     46% 0.00 in WeatherDisplay:10.37 W/m2 SCT
20:30 79.8 °F 57.8 °F 30.00 in Calm     47% 0.00 in WeatherDisplay:10.37 W/m2 SCT
20:45 79.3 °F 56.8 °F 30.01 in Calm     46% 0.00 in WeatherDisplay:10.37 W/m2 SCT
21:00 78.5 °F 56.6 °F 30.00 in Calm     47% 0.00 in WeatherDisplay:10.37 W/m2 SCT
21:15 77.8 °F 55.9 °F 30.01 in Calm     47% 0.00 in WeatherDisplay:10.37 W/m2 SCT
21:30 77.1 °F 57.0 °F 30.01 in Calm     50% 0.00 in WeatherDisplay:10.37 W/m2 SCT
21:45 76.8 °F 56.8 °F 30.02 in Calm     50% 0.00 in WeatherDisplay:10.37 W/m2 SCT
22:00 76.3 °F 57.4 °F 30.02 in Calm     52% 0.00 in WeatherDisplay:10.37 W/m2 SCT
22:15 75.8 °F 58.0 °F 30.03 in Calm     54% 0.00 in WeatherDisplay:10.37 W/m2 SCT
22:30 75.3 °F 58.0 °F 30.03 in Calm     55% 0.00 in WeatherDisplay:10.37 W/m2 SCT
22:45 75.0 °F 58.2 °F 30.04 in Calm     56% 0.00 in WeatherDisplay:10.37 W/m2 SCT
23:00 74.6 °F 58.4 °F 30.04 in Calm     57% 0.00 in WeatherDisplay:10.37 W/m2 SCT
23:15 74.5 °F 58.2 °F 30.04 in Calm     57% 0.00 in WeatherDisplay:10.37 W/m2 SCT
23:30 74.2 °F 58.9 °F 30.04 in Calm     59% 0.00 in WeatherDisplay:10.37 W/m2 SCT
23:45 73.8 °F 58.5 °F 30.04 in Calm     59% 0.00 in WeatherDisplay:10.37 W/m2 SCT
Piedmont Bend
Compliments of Weather Underground - 4 mb